Time,TemperatureF,DewpointF,PressureIn,WindDirection,WindDirectionDegrees,WindSpeedMPH,WindSpeedGustMPH,Humidity,HourlyPrecipIn,Conditions,Clouds,dailyrainin,SoftwareType,DateUTC
2013-06-11 00:00:00,53.0,13.0,-100.00,South,177,19.0,27.0,20,-99.99,,,-99.99,,2013-06-11 06:00:00,
2013-06-11 00:42:00,53.0,13.0,-100.00,South,177,19.0,27.0,20,-99.99,,,-99.99,,2013-06-11 06:42:00,
2013-06-11 00:52:00,53.0,13.0,-100.00,South,177,19.0,27.0,20,-99.99,,,-99.99,,2013-06-11 06:52:00,
2013-06-11 01:00:00,52.0,14.0,-100.00,South,175,22.0,33.0,21,-99.99,,,-99.99,,2013-06-11 07:00:00,
2013-06-11 01:42:00,52.0,14.0,-100.00,South,175,22.0,33.0,21,-99.99,,,-99.99,,2013-06-11 07:42:00,
2013-06-11 01:52:00,52.0,14.0,-100.00,South,175,22.0,33.0,21,-99.99,,,-99.99,,2013-06-11 07:52:00,
2013-06-11 02:00:00,51.0,13.0,-100.00,South,173,24.0,33.0,22,-99.99,,,-99.99,,2013-06-11 08:00:00,
2013-06-11 02:42:00,51.0,13.0,-100.00,South,173,24.0,33.0,22,-99.99,,,-99.99,,2013-06-11 08:42:00,
2013-06-11 02:52:00,51.0,13.0,-100.00,South,173,24.0,33.0,22,-99.99,,,-99.99,,2013-06-11 08:52:00,
2013-06-11 03:00:00,50.0,13.0,-100.00,South,175,25.0,35.0,22,-99.99,,,-99.99,,2013-06-11 09:00:00,
2013-06-11 03:43:00,50.0,13.0,-100.00,South,175,25.0,35.0,22,-99.99,,,-99.99,,2013-06-11 09:43:00,
2013-06-11 03:53:00,50.0,13.0,-100.00,South,175,25.0,35.0,22,-99.99,,,-99.99,,2013-06-11 09:53:00,
2013-06-11 04:00:00,49.0,12.0,-100.00,South,177,26.0,38.0,21,-99.99,,,-99.99,,2013-06-11 10:00:00,
2013-06-11 04:43:00,49.0,12.0,-100.00,South,177,26.0,38.0,21,-99.99,,,-99.99,,2013-06-11 10:43:00,
2013-06-11 04:52:00,49.0,12.0,-100.00,South,177,26.0,38.0,21,-99.99,,,-99.99,,2013-06-11 10:52:00,
2013-06-11 05:00:00,49.0,9.0,-100.00,South,177,29.0,42.0,19,-99.99,,,-99.99,,2013-06-11 11:00:00,
2013-06-11 05:42:00,49.0,9.0,-100.00,South,177,29.0,42.0,19,-99.99,,,-99.99,,2013-06-11 11:42:00,
2013-06-11 05:52:00,49.0,9.0,-100.00,South,177,29.0,42.0,19,-99.99,,,-99.99,,2013-06-11 11:52:00,
2013-06-11 06:00:00,48.0,8.0,-100.00,South,173,26.0,38.0,19,-99.99,,,-99.99,,2013-06-11 12:00:00,
2013-06-11 06:42:00,48.0,8.0,-100.00,South,173,26.0,38.0,19,-99.99,,,-99.99,,2013-06-11 12:42:00,
2013-06-11 06:52:00,48.0,8.0,-100.00,South,173,26.0,38.0,19,-99.99,,,-99.99,,2013-06-11 12:52:00,
2013-06-11 07:00:00,47.0,6.0,-100.00,South,174,26.0,38.0,18,-99.99,,,-99.99,,2013-06-11 13:00:00,
2013-06-11 07:42:00,47.0,6.0,-100.00,South,174,26.0,38.0,18,-99.99,,,-99.99,,2013-06-11 13:42:00,
2013-06-11 07:52:00,47.0,6.0,-100.00,South,174,26.0,38.0,18,-99.99,,,-99.99,,2013-06-11 13:52:00,
2013-06-11 08:00:00,47.0,6.0,-100.00,South,173,30.0,42.0,18,-99.99,,,-99.99,,2013-06-11 14:00:00,
2013-06-11 08:42:00,47.0,6.0,-100.00,South,173,30.0,42.0,18,-99.99,,,-99.99,,2013-06-11 14:42:00,
2013-06-11 08:53:00,47.0,6.0,-100.00,South,173,30.0,42.0,18,-99.99,,,-99.99,,2013-06-11 14:53:00,
2013-06-11 09:00:00,48.0,2.0,-100.00,South,173,30.0,49.0,14,-99.99,,,-99.99,,2013-06-11 15:00:00,
2013-06-11 09:43:00,48.0,2.0,-100.00,South,173,30.0,49.0,14,-99.99,,,-99.99,,2013-06-11 15:43:00,
2013-06-11 09:53:00,48.0,2.0,-100.00,South,173,30.0,49.0,14,-99.99,,,-99.99,,2013-06-11 15:53:00,
2013-06-11 10:00:00,49.0,4.0,-100.00,South,171,20.0,38.0,15,-99.99,,,-99.99,,2013-06-11 16:00:00,
2013-06-11 10:42:00,49.0,4.0,-100.00,South,171,20.0,38.0,15,-99.99,,,-99.99,,2013-06-11 16:42:00,
2013-06-11 10:52:00,49.0,4.0,-100.00,South,171,20.0,38.0,15,-99.99,,,-99.99,,2013-06-11 16:52:00,
2013-06-11 11:00:00,51.0,8.0,-100.00,SSE,167,18.0,31.0,17,-99.99,,,-99.99,,2013-06-11 17:00:00,
2013-06-11 11:43:00,51.0,8.0,-100.00,SSE,167,18.0,31.0,17,-99.99,,,-99.99,,2013-06-11 17:43:00,
2013-06-11 11:52:00,51.0,8.0,-100.00,SSE,167,18.0,31.0,17,-99.99,,,-99.99,,2013-06-11 17:52:00,
2013-06-11 12:00:00,53.0,11.0,-100.00,South,174,17.0,37.0,18,-99.99,,,-99.99,,2013-06-11 18:00:00,
2013-06-11 12:43:00,53.0,11.0,-100.00,South,174,17.0,37.0,18,-99.99,,,-99.99,,2013-06-11 18:43:00,
2013-06-11 12:52:00,53.0,11.0,-100.00,South,174,17.0,37.0,18,-99.99,,,-99.99,,2013-06-11 18:52:00,
2013-06-11 13:00:00,55.0,13.0,-100.00,South,182,23.0,56.0,18,-99.99,,,-99.99,,2013-06-11 19:00:00,
2013-06-11 13:42:00,55.0,13.0,-100.00,South,182,23.0,56.0,18,-99.99,,,-99.99,,2013-06-11 19:42:00,
2013-06-11 13:52:00,55.0,13.0,-100.00,South,182,23.0,56.0,18,-99.99,,,-99.99,,2013-06-11 19:52:00,
2013-06-11 14:00:00,56.0,11.0,-100.00,South,190,29.0,53.0,16,-99.99,,,-99.99,,2013-06-11 20:00:00,
2013-06-11 14:42:00,56.0,11.0,-100.00,South,190,29.0,53.0,16,-99.99,,,-99.99,,2013-06-11 20:42:00,
2013-06-11 14:52:00,56.0,11.0,-100.00,South,190,29.0,53.0,16,-99.99,,,-99.99,,2013-06-11 20:52:00,
2013-06-11 15:00:00,56.0,13.0,-100.00,South,185,31.0,58.0,17,-99.99,,,-99.99,,2013-06-11 21:00:00,
2013-06-11 15:42:00,56.0,13.0,-100.00,South,185,31.0,58.0,17,-99.99,,,-99.99,,2013-06-11 21:42:00,
2013-06-11 15:53:00,56.0,13.0,-100.00,South,185,31.0,58.0,17,-99.99,,,-99.99,,2013-06-11 21:53:00,
2013-06-11 16:00:00,58.0,12.0,-100.00,SSW,196,30.0,53.0,16,-99.99,,,-99.99,,2013-06-11 22:00:00,
2013-06-11 16:42:00,58.0,12.0,-100.00,SSW,196,30.0,53.0,16,-99.99,,,-99.99,,2013-06-11 22:42:00,
2013-06-11 16:52:00,58.0,12.0,-100.00,SSW,196,30.0,53.0,16,-99.99,,,-99.99,,2013-06-11 22:52:00,
2013-06-11 17:00:00,58.0,12.0,-100.00,South,187,30.0,50.0,16,-99.99,,,-99.99,,2013-06-11 23:00:00,
2013-06-11 17:42:00,58.0,12.0,-100.00,South,187,30.0,50.0,16,-99.99,,,-99.99,,2013-06-11 23:42:00,
2013-06-11 17:52:00,58.0,12.0,-100.00,South,187,30.0,50.0,16,-99.99,,,-99.99,,2013-06-11 23:52:00,
2013-06-11 18:00:00,58.0,13.0,-100.00,SSW,202,20.0,37.0,16,-99.99,,,-99.99,,2013-06-12 00:00:00,
2013-06-11 18:42:00,58.0,13.0,-100.00,SSW,202,20.0,37.0,16,-99.99,,,-99.99,,2013-06-12 00:42:00,
2013-06-11 18:52:00,58.0,13.0,-100.00,SSW,202,20.0,37.0,16,-99.99,,,-99.99,,2013-06-12 00:52:00,
2013-06-11 19:00:00,57.0,11.0,-100.00,SSW,207,15.0,29.0,15,-99.99,,,-99.99,,2013-06-12 01:00:00,
2013-06-11 19:42:00,57.0,11.0,-100.00,SSW,207,15.0,29.0,15,-99.99,,,-99.99,,2013-06-12 01:42:00,
2013-06-11 19:52:00,57.0,11.0,-100.00,SSW,207,15.0,29.0,15,-99.99,,,-99.99,,2013-06-12 01:52:00,
2013-06-11 20:00:00,55.0,11.0,-100.00,SSW,200,15.0,30.0,17,-99.99,,,-99.99,,2013-06-12 02:00:00,
2013-06-11 20:42:00,55.0,11.0,-100.00,SSW,200,15.0,30.0,17,-99.99,,,-99.99,,2013-06-12 02:42:00,
2013-06-11 20:52:00,55.0,11.0,-100.00,SSW,200,15.0,30.0,17,-99.99,,,-99.99,,2013-06-12 02:52:00,
2013-06-11 21:00:00,52.0,12.0,-100.00,SSW,206,8.0,20.0,19,-99.99,,,-99.99,,2013-06-12 03:00:00,
2013-06-11 21:43:00,52.0,12.0,-100.00,SSW,206,8.0,20.0,19,-99.99,,,-99.99,,2013-06-12 03:43:00,
2013-06-11 21:53:00,52.0,12.0,-100.00,SSW,206,8.0,20.0,19,-99.99,,,-99.99,,2013-06-12 03:53:00,
2013-06-11 22:00:00,50.0,12.0,-100.00,SSW,194,5.0,12.0,21,-99.99,,,-99.99,,2013-06-12 04:00:00,
2013-06-11 22:42:00,50.0,12.0,-100.00,SSW,194,5.0,12.0,21,-99.99,,,-99.99,,2013-06-12 04:42:00,
2013-06-11 22:52:00,50.0,12.0,-100.00,SSW,194,5.0,12.0,21,-99.99,,,-99.99,,2013-06-12 04:52:00,
2013-06-11 23:00:00,49.0,13.0,-100.00,SSW,199,6.0,16.0,23,-99.99,,,-99.99,,2013-06-12 05:00:00,
2013-06-11 23:42:00,49.0,13.0,-100.00,SSW,199,6.0,16.0,23,-99.99,,,-99.99,,2013-06-12 05:42:00,
2013-06-11 23:52:00,49.0,13.0,-100.00,SSW,199,6.0,16.0,23,-99.99,,,-99.99,,2013-06-12 05:52:00,